Portada
METAR-TAF:

METAR-TAF

Aeroports :

Sanikiluaq, Nunavut, Canadà

latitud: 56-32N, longitud: 079-15W, altitud: 32 m

Observació

L'informe es va fer fa 35 minuts, a les 17:00 UTC
Vent 13 kt del Nord/Nord-Est
Temperatura -22°C
Humitat 76%
Pressió 1025 hPa
Visibilitat: 24.1 km
Escasses núvols a una alçada de 3000 ft
Núvols disperses a una alçada de 22000 ft

METAR: CYSK 271700Z 03013KT 15SM FEW030 SCT220 M22/M25 A3028 RMK SC1CS3 SLP261

Hora: 12:35 (17:35 UTC)


TAF: manca

Observacions i pronòstics meteorològics de més de 4000 aeroports (METAR i TAF).

Les estacions disponibles són els punts grocs i vermells al mapa.

Posi el ratolí al punt desitjat per veure el nom de l'estació.

Feu clic per veure les observacions i els pronòstics meteorològics.

Per canviar el mapa: feu clic els botons verds amb una creu de color negre per apropar; al botó verd amb un guió per allunyar la imatge; o en les fletxes verdes per a mapes adjacents.


METAR-TAF: